CheckWX is a tool to help pilots better visualize weather data.  It is not intended as a substitute for an official pre-flight weather briefing.

05:18:40 UTC

5M9 METAR
Marion-Crittenden County Airport
Marion, Kentucky, USA
Current

24 mins ago

K5M9 280455Z AUTO 22006KT 10SM BKN060 OVC075 04/M04 A3011 RMK AO2 T00351042
Observed
Feb-28 @ 04:55 UTC
Wind
  • 220° at 6 KTS
Visibility
10 SM
Flight Rules
VFR
Cloud Levels
  • Broken at 6,000' AGL
  • Overcast at 7,500' AGL
Temperature
C / 39°F
Dewpoint
-4°C / 25°F
Humidity
56%
Altimeter
30.11" Hg
Pressure
1019.62 hPa
Previous

44 mins ago

K5M9 280435Z AUTO 23006KT 10SM SCT060 OVC075 03/M04 A3011 RMK AO2 T00321043
Observed
Feb-28 @ 04:35 UTC
Wind
  • 230° at 6 KTS
Visibility
10 SM
Flight Rules
VFR
Cloud Levels
  • Scattered at 6,000' AGL
  • Overcast at 7,500' AGL
Temperature
C / 37°F
Dewpoint
-4°C / 25°F
Humidity
60%
Altimeter
30.11" Hg
Pressure
1019.62 hPa
Previous

1 hour ago

K5M9 280415Z AUTO 23004KT 10SM SCT060 OVC075 03/M04 A3012 RMK AO2 T00291045
Observed
Feb-28 @ 04:15 UTC
Wind
  • 230° at 4 KTS
Visibility
10 SM
Flight Rules
VFR
Cloud Levels
  • Scattered at 6,000' AGL
  • Overcast at 7,500' AGL
Temperature
C / 37°F
Dewpoint
-5°C / 23°F
Humidity
56%
Altimeter
30.12" Hg
Pressure
1020.02 hPa